sensor_id;sensor_type;location;lat;lon;timestamp;P1;durP1;ratioP1;P2;durP2;ratioP2
68854;SDS011;55859;55.710;12.464;2022-08-05T00:01:00;5.05;;;2.25;;
68854;SDS011;55859;55.710;12.464;2022-08-05T00:03:26;9.20;;;2.33;;
68854;SDS011;55859;55.710;12.464;2022-08-05T00:05:52;3.95;;;2.58;;
68854;SDS011;55859;55.710;12.464;2022-08-05T00:08:17;3.55;;;2.10;;
68854;SDS011;55859;55.710;12.464;2022-08-05T00:10:43;2.45;;;2.25;;
68854;SDS011;55859;55.710;12.464;2022-08-05T00:13:08;5.25;;;2.53;;
68854;SDS011;55859;55.710;12.464;2022-08-05T00:15:34;6.72;;;2.63;;
68854;SDS011;55859;55.710;12.464;2022-08-05T00:17:59;5.43;;;2.30;;
68854;SDS011;55859;55.710;12.464;2022-08-05T00:20:24;2.30;;;2.00;;
68854;SDS011;55859;55.710;12.464;2022-08-05T00:22:50;7.30;;;3.20;;
68854;SDS011;55859;55.710;12.464;2022-08-05T00:25:15;8.07;;;2.53;;
68854;SDS011;55859;55.710;12.464;2022-08-05T00:27:40;7.90;;;2.67;;
68854;SDS011;55859;55.710;12.464;2022-08-05T00:30:06;8.87;;;2.83;;
68854;SDS011;55859;55.710;12.464;2022-08-05T00:32:33;5.78;;;2.95;;
68854;SDS011;55859;55.710;12.464;2022-08-05T00:34:58;3.65;;;2.63;;
68854;SDS011;55859;55.710;12.464;2022-08-05T00:37:24;9.60;;;2.90;;
68854;SDS011;55859;55.710;12.464;2022-08-05T00:39:49;5.73;;;2.90;;
68854;SDS011;55859;55.710;12.464;2022-08-05T00:42:14;10.53;;;3.27;;
68854;SDS011;55859;55.710;12.464;2022-08-05T00:44:41;7.35;;;3.35;;
68854;SDS011;55859;55.710;12.464;2022-08-05T00:47:07;6.85;;;3.85;;
68854;SDS011;55859;55.710;12.464;2022-08-05T00:49:32;6.45;;;2.47;;
68854;SDS011;55859;55.710;12.464;2022-08-05T00:51:57;8.15;;;2.67;;
68854;SDS011;55859;55.710;12.464;2022-08-05T00:54:23;8.73;;;3.43;;
68854;SDS011;55859;55.710;12.464;2022-08-05T00:56:48;9.80;;;3.23;;
68854;SDS011;55859;55.710;12.464;2022-08-05T00:59:13;7.50;;;3.33;;
68854;SDS011;55859;55.710;12.464;2022-08-05T01:01:39;8.40;;;3.17;;
68854;SDS011;55859;55.710;12.464;2022-08-05T01:04:04;6.65;;;3.85;;
68854;SDS011;55859;55.710;12.464;2022-08-05T01:06:30;10.63;;;3.63;;
68854;SDS011;55859;55.710;12.464;2022-08-05T01:08:55;5.45;;;3.90;;
68854;SDS011;55859;55.710;12.464;2022-08-05T01:11:22;9.13;;;4.53;;
68854;SDS011;55859;55.710;12.464;2022-08-05T01:16:19;8.23;;;3.87;;
68854;SDS011;55859;55.710;12.464;2022-08-05T01:18:53;16.10;;;4.97;;
68854;SDS011;55859;55.710;12.464;2022-08-05T01:21:54;8.85;;;4.90;;
68854;SDS011;55859;55.710;12.464;2022-08-05T01:30:25;10.90;;;5.18;;
68854;SDS011;55859;55.710;12.464;2022-08-05T01:35:21;13.52;;;5.80;;
68854;SDS011;55859;55.710;12.464;2022-08-05T01:37:52;10.73;;;4.93;;
68854;SDS011;55859;55.710;12.464;2022-08-05T01:40:20;12.85;;;5.07;;
68854;SDS011;55859;55.710;12.464;2022-08-05T01:42:48;9.80;;;4.88;;
68854;SDS011;55859;55.710;12.464;2022-08-05T01:45:16;9.70;;;4.90;;
68854;SDS011;55859;55.710;12.464;2022-08-05T01:47:43;12.57;;;4.88;;
68854;SDS011;55859;55.710;12.464;2022-08-05T01:50:14;12.93;;;4.68;;
68854;SDS011;55859;55.710;12.464;2022-08-05T01:52:44;8.45;;;4.13;;
68854;SDS011;55859;55.710;12.464;2022-08-05T01:55:12;9.18;;;4.32;;
68854;SDS011;55859;55.710;12.464;2022-08-05T01:57:41;8.23;;;4.13;;
68854;SDS011;55859;55.710;12.464;2022-08-05T02:00:09;8.95;;;5.00;;
68854;SDS011;55859;55.710;12.464;2022-08-05T02:02:37;9.38;;;4.40;;
68854;SDS011;55859;55.710;12.464;2022-08-05T02:05:06;8.27;;;4.50;;
68854;SDS011;55859;55.710;12.464;2022-08-05T02:07:35;5.05;;;4.40;;
68854;SDS011;55859;55.710;12.464;2022-08-05T02:10:01;9.50;;;4.25;;
68854;SDS011;55859;55.710;12.464;2022-08-05T02:15:26;6.30;;;4.38;;
68854;SDS011;55859;55.710;12.464;2022-08-05T02:18:02;7.63;;;4.32;;
68854;SDS011;55859;55.710;12.464;2022-08-05T02:20:31;13.10;;;4.45;;
68854;SDS011;55859;55.710;12.464;2022-08-05T02:23:04;8.98;;;4.32;;
68854;SDS011;55859;55.710;12.464;2022-08-05T02:25:35;7.40;;;4.40;;
68854;SDS011;55859;55.710;12.464;2022-08-05T02:28:02;8.25;;;3.78;;
68854;SDS011;55859;55.710;12.464;2022-08-05T02:30:31;11.63;;;4.13;;
68854;SDS011;55859;55.710;12.464;2022-08-05T02:33:04;8.75;;;4.20;;
68854;SDS011;55859;55.710;12.464;2022-08-05T02:35:32;10.98;;;4.05;;
68854;SDS011;55859;55.710;12.464;2022-08-05T02:37:59;6.22;;;3.72;;
68854;SDS011;55859;55.710;12.464;2022-08-05T02:40:26;6.07;;;3.78;;
68854;SDS011;55859;55.710;12.464;2022-08-05T02:42:51;6.55;;;2.92;;
68854;SDS011;55859;55.710;12.464;2022-08-05T02:45:20;5.95;;;2.92;;
68854;SDS011;55859;55.710;12.464;2022-08-05T02:47:47;4.75;;;2.90;;
68854;SDS011;55859;55.710;12.464;2022-08-05T02:50:14;8.35;;;2.55;;
68854;SDS011;55859;55.710;12.464;2022-08-05T02:52:40;4.40;;;2.60;;
68854;SDS011;55859;55.710;12.464;2022-08-05T02:55:09;4.22;;;2.28;;
68854;SDS011;55859;55.710;12.464;2022-08-05T02:57:37;2.30;;;2.10;;
68854;SDS011;55859;55.710;12.464;2022-08-05T03:00:04;4.10;;;2.72;;
68854;SDS011;55859;55.710;12.464;2022-08-05T03:02:33;2.78;;;1.73;;
68854;SDS011;55859;55.710;12.464;2022-08-05T03:05:03;2.83;;;2.10;;
68854;SDS011;55859;55.710;12.464;2022-08-05T03:07:29;4.88;;;2.20;;
68854;SDS011;55859;55.710;12.464;2022-08-05T03:09:55;4.90;;;1.95;;
68854;SDS011;55859;55.710;12.464;2022-08-05T03:12:28;3.28;;;1.95;;
68854;SDS011;55859;55.710;12.464;2022-08-05T03:14:54;2.35;;;1.65;;
68854;SDS011;55859;55.710;12.464;2022-08-05T03:17:19;4.07;;;2.20;;
68854;SDS011;55859;55.710;12.464;2022-08-05T03:19:45;3.10;;;2.27;;
68854;SDS011;55859;55.710;12.464;2022-08-05T03:22:10;2.50;;;1.77;;
68854;SDS011;55859;55.710;12.464;2022-08-05T03:24:36;2.58;;;1.65;;
68854;SDS011;55859;55.710;12.464;2022-08-05T03:27:01;9.10;;;2.17;;
68854;SDS011;55859;55.710;12.464;2022-08-05T03:29:27;3.92;;;1.73;;
68854;SDS011;55859;55.710;12.464;2022-08-05T03:31:52;3.35;;;1.95;;
68854;SDS011;55859;55.710;12.464;2022-08-05T03:34:18;2.35;;;1.63;;
68854;SDS011;55859;55.710;12.464;2022-08-05T03:36:44;7.47;;;1.90;;
68854;SDS011;55859;55.710;12.464;2022-08-05T03:39:09;4.10;;;1.40;;
68854;SDS011;55859;55.710;12.464;2022-08-05T03:41:34;7.57;;;2.35;;
68854;SDS011;55859;55.710;12.464;2022-08-05T03:44:00;7.88;;;1.48;;
68854;SDS011;55859;55.710;12.464;2022-08-05T03:46:25;5.78;;;1.70;;
68854;SDS011;55859;55.710;12.464;2022-08-05T03:48:51;4.70;;;1.83;;
68854;SDS011;55859;55.710;12.464;2022-08-05T03:51:18;3.70;;;1.87;;
68854;SDS011;55859;55.710;12.464;2022-08-05T03:56:47;7.07;;;2.17;;
68854;SDS011;55859;55.710;12.464;2022-08-05T03:59:15;10.18;;;2.00;;
68854;SDS011;55859;55.710;12.464;2022-08-05T04:01:44;7.93;;;1.60;;
68854;SDS011;55859;55.710;12.464;2022-08-05T04:04:12;4.18;;;1.92;;
68854;SDS011;55859;55.710;12.464;2022-08-05T04:06:39;2.90;;;2.17;;
68854;SDS011;55859;55.710;12.464;2022-08-05T04:09:05;8.52;;;1.83;;
68854;SDS011;55859;55.710;12.464;2022-08-05T04:11:32;4.70;;;1.83;;
68854;SDS011;55859;55.710;12.464;2022-08-05T04:13:59;3.40;;;1.85;;
68854;SDS011;55859;55.710;12.464;2022-08-05T04:16:24;9.93;;;2.35;;
68854;SDS011;55859;55.710;12.464;2022-08-05T04:18:50;5.07;;;2.08;;
68854;SDS011;55859;55.710;12.464;2022-08-05T04:21:16;5.82;;;2.20;;
68854;SDS011;55859;55.710;12.464;2022-08-05T04:23:41;3.83;;;2.00;;
68854;SDS011;55859;55.710;12.464;2022-08-05T04:26:07;4.18;;;2.20;;
68854;SDS011;55859;55.710;12.464;2022-08-05T04:28:33;4.65;;;2.03;;
68854;SDS011;55859;55.710;12.464;2022-08-05T04:30:58;6.80;;;2.03;;
68854;SDS011;55859;55.710;12.464;2022-08-05T04:33:24;5.00;;;2.33;;
68854;SDS011;55859;55.710;12.464;2022-08-05T04:35:50;10.95;;;2.35;;
68854;SDS011;55859;55.710;12.464;2022-08-05T04:38:15;5.45;;;1.92;;
68854;SDS011;55859;55.710;12.464;2022-08-05T04:40:41;6.50;;;2.10;;
68854;SDS011;55859;55.710;12.464;2022-08-05T04:43:06;4.53;;;2.20;;
68854;SDS011;55859;55.710;12.464;2022-08-05T04:45:32;5.90;;;1.98;;
68854;SDS011;55859;55.710;12.464;2022-08-05T04:50:42;2.83;;;1.40;;
68854;SDS011;55859;55.710;12.464;2022-08-05T04:53:12;2.67;;;1.67;;
68854;SDS011;55859;55.710;12.464;2022-08-05T04:55:39;4.88;;;1.60;;
68854;SDS011;55859;55.710;12.464;2022-08-05T04:58:06;7.40;;;1.75;;
68854;SDS011;55859;55.710;12.464;2022-08-05T05:00:33;6.43;;;1.92;;
68854;SDS011;55859;55.710;12.464;2022-08-05T05:03:00;8.18;;;2.00;;
68854;SDS011;55859;55.710;12.464;2022-08-05T05:05:26;1.85;;;1.23;;
68854;SDS011;55859;55.710;12.464;2022-08-05T05:07:52;4.43;;;1.48;;
68854;SDS011;55859;55.710;12.464;2022-08-05T05:10:24;5.18;;;1.60;;
68854;SDS011;55859;55.710;12.464;2022-08-05T05:12:49;4.50;;;1.57;;
68854;SDS011;55859;55.710;12.464;2022-08-05T05:15:14;2.77;;;1.50;;
68854;SDS011;55859;55.710;12.464;2022-08-05T05:17:40;4.18;;;1.17;;
68854;SDS011;55859;55.710;12.464;2022-08-05T05:20:08;4.93;;;1.35;;
68854;SDS011;55859;55.710;12.464;2022-08-05T05:22:34;4.22;;;1.45;;
68854;SDS011;55859;55.710;12.464;2022-08-05T05:25:00;6.45;;;1.50;;
68854;SDS011;55859;55.710;12.464;2022-08-05T05:27:26;6.28;;;1.63;;
68854;SDS011;55859;55.710;12.464;2022-08-05T05:29:55;9.00;;;1.65;;
68854;SDS011;55859;55.710;12.464;2022-08-05T05:32:21;7.45;;;1.73;;
68854;SDS011;55859;55.710;12.464;2022-08-05T05:34:46;10.43;;;1.93;;
68854;SDS011;55859;55.710;12.464;2022-08-05T05:37:11;7.68;;;1.75;;
68854;SDS011;55859;55.710;12.464;2022-08-05T05:39:38;4.53;;;1.70;;
68854;SDS011;55859;55.710;12.464;2022-08-05T05:42:04;9.43;;;2.20;;
68854;SDS011;55859;55.710;12.464;2022-08-05T05:44:29;9.00;;;2.38;;
68854;SDS011;55859;55.710;12.464;2022-08-05T05:46:54;8.03;;;2.33;;
68854;SDS011;55859;55.710;12.464;2022-08-05T05:49:20;6.88;;;2.50;;
68854;SDS011;55859;55.710;12.464;2022-08-05T05:51:45;7.77;;;2.37;;
68854;SDS011;55859;55.710;12.464;2022-08-05T05:54:10;8.40;;;2.50;;
68854;SDS011;55859;55.710;12.464;2022-08-05T05:56:37;5.87;;;2.33;;
68854;SDS011;55859;55.710;12.464;2022-08-05T05:59:06;5.28;;;2.13;;
68854;SDS011;55859;55.710;12.464;2022-08-05T06:01:32;8.57;;;2.60;;
68854;SDS011;55859;55.710;12.464;2022-08-05T06:03:59;4.97;;;2.25;;
68854;SDS011;55859;55.710;12.464;2022-08-05T06:06:24;5.77;;;1.90;;
68854;SDS011;55859;55.710;12.464;2022-08-05T06:08:49;5.70;;;2.03;;
68854;SDS011;55859;55.710;12.464;2022-08-05T06:11:15;6.25;;;2.55;;
68854;SDS011;55859;55.710;12.464;2022-08-05T06:13:40;10.67;;;2.37;;
68854;SDS011;55859;55.710;12.464;2022-08-05T06:16:05;3.10;;;2.27;;
68854;SDS011;55859;55.710;12.464;2022-08-05T06:18:31;7.03;;;1.92;;
68854;SDS011;55859;55.710;12.464;2022-08-05T06:20:57;10.43;;;2.30;;
68854;SDS011;55859;55.710;12.464;2022-08-05T06:23:22;8.20;;;2.17;;
68854;SDS011;55859;55.710;12.464;2022-08-05T06:25:47;5.43;;;2.03;;
68854;SDS011;55859;55.710;12.464;2022-08-05T06:28:13;6.95;;;2.72;;
68854;SDS011;55859;55.710;12.464;2022-08-05T06:30:38;5.63;;;2.13;;
68854;SDS011;55859;55.710;12.464;2022-08-05T06:33:03;3.87;;;2.13;;
68854;SDS011;55859;55.710;12.464;2022-08-05T06:35:28;5.20;;;2.27;;
68854;SDS011;55859;55.710;12.464;2022-08-05T06:37:54;9.18;;;2.60;;
68854;SDS011;55859;55.710;12.464;2022-08-05T06:40:19;7.10;;;2.30;;
68854;SDS011;55859;55.710;12.464;2022-08-05T06:42:44;4.33;;;1.60;;
68854;SDS011;55859;55.710;12.464;2022-08-05T06:45:10;5.32;;;1.45;;
68854;SDS011;55859;55.710;12.464;2022-08-05T06:47:35;4.90;;;1.38;;
68854;SDS011;55859;55.710;12.464;2022-08-05T06:50:01;2.33;;;1.33;;
68854;SDS011;55859;55.710;12.464;2022-08-05T06:52:26;3.85;;;1.77;;
68854;SDS011;55859;55.710;12.464;2022-08-05T06:54:51;6.78;;;2.10;;
68854;SDS011;55859;55.710;12.464;2022-08-05T06:57:17;3.77;;;1.67;;
68854;SDS011;55859;55.710;12.464;2022-08-05T06:59:42;6.35;;;1.67;;
68854;SDS011;55859;55.710;12.464;2022-08-05T07:02:08;7.68;;;2.05;;
68854;SDS011;55859;55.710;12.464;2022-08-05T07:04:33;3.55;;;1.70;;
68854;SDS011;55859;55.710;12.464;2022-08-05T07:06:59;5.88;;;1.95;;
68854;SDS011;55859;55.710;12.464;2022-08-05T07:09:24;7.70;;;1.83;;
68854;SDS011;55859;55.710;12.464;2022-08-05T07:11:50;4.97;;;2.43;;
68854;SDS011;55859;55.710;12.464;2022-08-05T07:14:15;8.15;;;2.13;;
68854;SDS011;55859;55.710;12.464;2022-08-05T07:17:01;6.63;;;1.80;;
68854;SDS011;55859;55.710;12.464;2022-08-05T07:19:27;4.50;;;1.40;;
68854;SDS011;55859;55.710;12.464;2022-08-05T07:21:55;7.40;;;1.77;;
68854;SDS011;55859;55.710;12.464;2022-08-05T07:24:22;5.68;;;1.77;;
68854;SDS011;55859;55.710;12.464;2022-08-05T07:26:48;4.65;;;2.05;;
68854;SDS011;55859;55.710;12.464;2022-08-05T07:29:14;5.85;;;1.98;;
68854;SDS011;55859;55.710;12.464;2022-08-05T07:31:40;6.22;;;1.75;;
68854;SDS011;55859;55.710;12.464;2022-08-05T07:34:06;5.05;;;1.75;;
68854;SDS011;55859;55.710;12.464;2022-08-05T07:36:32;7.90;;;2.45;;
68854;SDS011;55859;55.710;12.464;2022-08-05T07:39:01;3.03;;;1.50;;
68854;SDS011;55859;55.710;12.464;2022-08-05T07:41:29;3.75;;;1.65;;
68854;SDS011;55859;55.710;12.464;2022-08-05T07:43:54;2.83;;;1.63;;
68854;SDS011;55859;55.710;12.464;2022-08-05T07:46:21;2.17;;;0.95;;
68854;SDS011;55859;55.710;12.464;2022-08-05T07:48:46;3.22;;;0.93;;
68854;SDS011;55859;55.710;12.464;2022-08-05T07:51:12;4.63;;;1.00;;
68854;SDS011;55859;55.710;12.464;2022-08-05T07:53:39;7.15;;;1.25;;
68854;SDS011;55859;55.710;12.464;2022-08-05T07:56:05;2.95;;;1.05;;
68854;SDS011;55859;55.710;12.464;2022-08-05T07:58:30;5.50;;;0.98;;
68854;SDS011;55859;55.710;12.464;2022-08-05T08:00:56;6.63;;;1.15;;
68854;SDS011;55859;55.710;12.464;2022-08-05T08:03:21;6.70;;;0.97;;
68854;SDS011;55859;55.710;12.464;2022-08-05T08:05:47;5.88;;;1.50;;
68854;SDS011;55859;55.710;12.464;2022-08-05T08:08:15;5.40;;;0.70;;
68854;SDS011;55859;55.710;12.464;2022-08-05T08:10:40;1.70;;;0.90;;
68854;SDS011;55859;55.710;12.464;2022-08-05T08:13:06;2.28;;;1.00;;
68854;SDS011;55859;55.710;12.464;2022-08-05T08:15:31;6.75;;;1.23;;
68854;SDS011;55859;55.710;12.464;2022-08-05T08:17:56;4.80;;;0.80;;
68854;SDS011;55859;55.710;12.464;2022-08-05T08:20:22;4.28;;;0.95;;
68854;SDS011;55859;55.710;12.464;2022-08-05T08:22:49;9.25;;;1.00;;
68854;SDS011;55859;55.710;12.464;2022-08-05T08:25:19;3.72;;;1.02;;
68854;SDS011;55859;55.710;12.464;2022-08-05T08:27:45;3.40;;;1.15;;
68854;SDS011;55859;55.710;12.464;2022-08-05T08:30:11;7.13;;;1.02;;
68854;SDS011;55859;55.710;12.464;2022-08-05T08:32:37;4.70;;;0.90;;
68854;SDS011;55859;55.710;12.464;2022-08-05T08:35:02;3.03;;;0.83;;
68854;SDS011;55859;55.710;12.464;2022-08-05T08:37:28;6.72;;;0.93;;
68854;SDS011;55859;55.710;12.464;2022-08-05T08:39:53;1.37;;;0.77;;
68854;SDS011;55859;55.710;12.464;2022-08-05T08:42:18;1.37;;;0.77;;
68854;SDS011;55859;55.710;12.464;2022-08-05T08:44:46;2.92;;;0.60;;
68854;SDS011;55859;55.710;12.464;2022-08-05T08:47:11;8.80;;;1.00;;
68854;SDS011;55859;55.710;12.464;2022-08-05T08:49:37;3.08;;;0.90;;
68854;SDS011;55859;55.710;12.464;2022-08-05T08:52:11;6.05;;;0.90;;
68854;SDS011;55859;55.710;12.464;2022-08-05T08:54:37;3.67;;;0.88;;
68854;SDS011;55859;55.710;12.464;2022-08-05T08:57:04;2.92;;;0.90;;
68854;SDS011;55859;55.710;12.464;2022-08-05T08:59:31;1.48;;;0.88;;
68854;SDS011;55859;55.710;12.464;2022-08-05T09:01:57;4.38;;;1.10;;
68854;SDS011;55859;55.710;12.464;2022-08-05T09:04:22;3.08;;;0.80;;
68854;SDS011;55859;55.710;12.464;2022-08-05T09:06:48;5.57;;;0.70;;
68854;SDS011;55859;55.710;12.464;2022-08-05T09:09:14;5.18;;;0.95;;
68854;SDS011;55859;55.710;12.464;2022-08-05T09:11:40;3.13;;;0.63;;
68854;SDS011;55859;55.710;12.464;2022-08-05T09:14:06;3.20;;;0.60;;
68854;SDS011;55859;55.710;12.464;2022-08-05T09:16:32;8.10;;;0.82;;
68854;SDS011;55859;55.710;12.464;2022-08-05T09:18:57;4.32;;;0.70;;
68854;SDS011;55859;55.710;12.464;2022-08-05T09:21:23;2.40;;;0.60;;
68854;SDS011;55859;55.710;12.464;2022-08-05T09:24:00;4.43;;;0.50;;
68854;SDS011;55859;55.710;12.464;2022-08-05T09:26:28;1.73;;;0.77;;
68854;SDS011;55859;55.710;12.464;2022-08-05T09:28:57;2.15;;;0.70;;
68854;SDS011;55859;55.710;12.464;2022-08-05T09:31:25;5.93;;;0.88;;
68854;SDS011;55859;55.710;12.464;2022-08-05T09:36:22;5.72;;;1.02;;
68854;SDS011;55859;55.710;12.464;2022-08-05T09:39:02;2.05;;;0.55;;
68854;SDS011;55859;55.710;12.464;2022-08-05T09:41:29;3.10;;;0.88;;
68854;SDS011;55859;55.710;12.464;2022-08-05T09:43:55;3.20;;;1.00;;
68854;SDS011;55859;55.710;12.464;2022-08-05T09:46:25;2.20;;;0.60;;
68854;SDS011;55859;55.710;12.464;2022-08-05T09:48:51;1.20;;;0.50;;
68854;SDS011;55859;55.710;12.464;2022-08-05T09:51:27;3.72;;;0.60;;
68854;SDS011;55859;55.710;12.464;2022-08-05T09:53:56;3.30;;;0.70;;
68854;SDS011;55859;55.710;12.464;2022-08-05T09:56:26;1.92;;;0.57;;
68854;SDS011;55859;55.710;12.464;2022-08-05T09:59:00;2.00;;;0.57;;
68854;SDS011;55859;55.710;12.464;2022-08-05T10:01:38;6.10;;;0.68;;
68854;SDS011;55859;55.710;12.464;2022-08-05T10:04:10;1.75;;;0.65;;
68854;SDS011;55859;55.710;12.464;2022-08-05T10:06:41;2.25;;;0.50;;
68854;SDS011;55859;55.710;12.464;2022-08-05T10:09:17;6.57;;;0.80;;
68854;SDS011;55859;55.710;12.464;2022-08-05T10:11:45;5.15;;;0.70;;
68854;SDS011;55859;55.710;12.464;2022-08-05T10:14:31;6.03;;;0.70;;
68854;SDS011;55859;55.710;12.464;2022-08-05T10:17:10;3.67;;;0.60;;
68854;SDS011;55859;55.710;12.464;2022-08-05T10:19:39;2.13;;;0.63;;
68854;SDS011;55859;55.710;12.464;2022-08-05T10:22:06;2.10;;;0.63;;
68854;SDS011;55859;55.710;12.464;2022-08-05T10:24:32;2.53;;;0.50;;
68854;SDS011;55859;55.710;12.464;2022-08-05T10:26:57;2.83;;;0.80;;
68854;SDS011;55859;55.710;12.464;2022-08-05T10:29:24;1.95;;;0.60;;
68854;SDS011;55859;55.710;12.464;2022-08-05T10:31:50;3.53;;;0.80;;
68854;SDS011;55859;55.710;12.464;2022-08-05T10:34:16;2.60;;;0.43;;
68854;SDS011;55859;55.710;12.464;2022-08-05T10:36:41;1.42;;;0.45;;
68854;SDS011;55859;55.710;12.464;2022-08-05T10:39:28;1.80;;;0.63;;
68854;SDS011;55859;55.710;12.464;2022-08-05T10:44:35;3.38;;;0.77;;
68854;SDS011;55859;55.710;12.464;2022-08-05T10:47:12;2.00;;;0.55;;
68854;SDS011;55859;55.710;12.464;2022-08-05T10:52:37;4.10;;;0.57;;
68854;SDS011;55859;55.710;12.464;2022-08-05T10:55:11;1.92;;;0.40;;
68854;SDS011;55859;55.710;12.464;2022-08-05T10:57:39;4.82;;;0.77;;
68854;SDS011;55859;55.710;12.464;2022-08-05T11:05:01;3.57;;;0.60;;
68854;SDS011;55859;55.710;12.464;2022-08-05T11:07:29;3.20;;;0.50;;
68854;SDS011;55859;55.710;12.464;2022-08-05T11:09:55;2.13;;;0.70;;
68854;SDS011;55859;55.710;12.464;2022-08-05T11:15:18;2.92;;;0.50;;
68854;SDS011;55859;55.710;12.464;2022-08-05T11:17:46;2.53;;;0.65;;
68854;SDS011;55859;55.710;12.464;2022-08-05T11:26:08;2.30;;;0.50;;
68854;SDS011;55859;55.710;12.464;2022-08-05T11:33:34;2.57;;;0.40;;
68854;SDS011;55859;55.710;12.464;2022-08-05T11:36:01;1.50;;;0.50;;
68854;SDS011;55859;55.710;12.464;2022-08-05T11:41:06;2.80;;;0.40;;
68854;SDS011;55859;55.710;12.464;2022-08-05T11:43:31;0.80;;;0.40;;
68854;SDS011;55859;55.710;12.464;2022-08-05T11:45:57;4.95;;;0.70;;
68854;SDS011;55859;55.710;12.464;2022-08-05T11:48:24;1.98;;;0.50;;
68854;SDS011;55859;55.710;12.464;2022-08-05T11:50:50;3.67;;;1.20;;
68854;SDS011;55859;55.710;12.464;2022-08-05T11:53:16;1.75;;;0.82;;
68854;SDS011;55859;55.710;12.464;2022-08-05T11:56:00;2.15;;;0.70;;
68854;SDS011;55859;55.710;12.464;2022-08-05T11:58:27;1.50;;;0.50;;
68854;SDS011;55859;55.710;12.464;2022-08-05T12:01:00;10.13;;;0.80;;
68854;SDS011;55859;55.710;12.464;2022-08-05T12:03:38;8.30;;;0.85;;
68854;SDS011;55859;55.710;12.464;2022-08-05T12:06:05;2.95;;;0.85;;
68854;SDS011;55859;55.710;12.464;2022-08-05T12:08:31;2.08;;;1.02;;
68854;SDS011;55859;55.710;12.464;2022-08-05T12:10:57;4.77;;;0.70;;
68854;SDS011;55859;55.710;12.464;2022-08-05T12:13:24;3.28;;;0.65;;
68854;SDS011;55859;55.710;12.464;2022-08-05T12:15:49;3.40;;;0.80;;
68854;SDS011;55859;55.710;12.464;2022-08-05T12:18:18;3.23;;;0.70;;
68854;SDS011;55859;55.710;12.464;2022-08-05T12:20:50;2.83;;;0.60;;
68854;SDS011;55859;55.710;12.464;2022-08-05T12:23:16;3.40;;;0.80;;
68854;SDS011;55859;55.710;12.464;2022-08-05T12:25:51;1.17;;;0.70;;
68854;SDS011;55859;55.710;12.464;2022-08-05T12:28:30;4.55;;;0.40;;
68854;SDS011;55859;55.710;12.464;2022-08-05T12:30:57;3.22;;;1.05;;
68854;SDS011;55859;55.710;12.464;2022-08-05T12:33:23;4.82;;;0.70;;
68854;SDS011;55859;55.710;12.464;2022-08-05T12:35:49;2.40;;;0.70;;
68854;SDS011;55859;55.710;12.464;2022-08-05T12:38:15;2.38;;;0.75;;
68854;SDS011;55859;55.710;12.464;2022-08-05T12:40:40;4.63;;;0.70;;
68854;SDS011;55859;55.710;12.464;2022-08-05T12:43:06;2.60;;;0.60;;
68854;SDS011;55859;55.710;12.464;2022-08-05T12:45:31;1.10;;;0.70;;
68854;SDS011;55859;55.710;12.464;2022-08-05T12:47:56;3.10;;;0.88;;
68854;SDS011;55859;55.710;12.464;2022-08-05T12:50:22;4.93;;;0.43;;
68854;SDS011;55859;55.710;12.464;2022-08-05T12:52:54;2.78;;;0.68;;
68854;SDS011;55859;55.710;12.464;2022-08-05T12:55:21;4.13;;;0.50;;
68854;SDS011;55859;55.710;12.464;2022-08-05T12:57:49;7.53;;;0.90;;
68854;SDS011;55859;55.710;12.464;2022-08-05T13:00:18;1.60;;;0.60;;
68854;SDS011;55859;55.710;12.464;2022-08-05T13:02:45;6.05;;;0.60;;
68854;SDS011;55859;55.710;12.464;2022-08-05T13:05:13;2.97;;;0.57;;
68854;SDS011;55859;55.710;12.464;2022-08-05T13:07:39;2.00;;;0.50;;
68854;SDS011;55859;55.710;12.464;2022-08-05T13:10:09;5.68;;;0.38;;
68854;SDS011;55859;55.710;12.464;2022-08-05T13:12:39;4.38;;;0.70;;
68854;SDS011;55859;55.710;12.464;2022-08-05T13:15:08;2.00;;;0.47;;
68854;SDS011;55859;55.710;12.464;2022-08-05T13:17:35;2.20;;;0.57;;
68854;SDS011;55859;55.710;12.464;2022-08-05T13:20:02;1.63;;;0.43;;
68854;SDS011;55859;55.710;12.464;2022-08-05T13:22:34;0.77;;;0.40;;
68854;SDS011;55859;55.710;12.464;2022-08-05T13:25:03;3.78;;;0.55;;
68854;SDS011;55859;55.710;12.464;2022-08-05T13:27:31;1.77;;;0.47;;
68854;SDS011;55859;55.710;12.464;2022-08-05T13:30:01;2.63;;;0.35;;
68854;SDS011;55859;55.710;12.464;2022-08-05T13:32:28;1.73;;;0.35;;
68854;SDS011;55859;55.710;12.464;2022-08-05T13:34:53;0.63;;;0.28;;
68854;SDS011;55859;55.710;12.464;2022-08-05T13:37:19;3.53;;;0.45;;
68854;SDS011;55859;55.710;12.464;2022-08-05T13:39:46;3.80;;;0.50;;
68854;SDS011;55859;55.710;12.464;2022-08-05T13:42:12;3.92;;;0.40;;
68854;SDS011;55859;55.710;12.464;2022-08-05T13:44:38;0.32;;;0.20;;
68854;SDS011;55859;55.710;12.464;2022-08-05T13:47:03;7.53;;;0.80;;
68854;SDS011;55859;55.710;12.464;2022-08-05T13:49:28;1.23;;;0.30;;
68854;SDS011;55859;55.710;12.464;2022-08-05T13:51:57;0.52;;;0.15;;
68854;SDS011;55859;55.710;12.464;2022-08-05T13:54:33;1.77;;;0.50;;
68854;SDS011;55859;55.710;12.464;2022-08-05T13:56:59;2.30;;;0.30;;
68854;SDS011;55859;55.710;12.464;2022-08-05T13:59:24;0.67;;;0.30;;
68854;SDS011;55859;55.710;12.464;2022-08-05T14:01:49;3.37;;;0.60;;
68854;SDS011;55859;55.710;12.464;2022-08-05T14:04:15;2.67;;;0.40;;
68854;SDS011;55859;55.710;12.464;2022-08-05T14:06:59;3.95;;;0.40;;
68854;SDS011;55859;55.710;12.464;2022-08-05T14:09:24;1.53;;;0.30;;
68854;SDS011;55859;55.710;12.464;2022-08-05T14:11:49;2.20;;;0.37;;
68854;SDS011;55859;55.710;12.464;2022-08-05T14:14:14;3.30;;;0.30;;
68854;SDS011;55859;55.710;12.464;2022-08-05T14:16:40;1.43;;;0.40;;
68854;SDS011;55859;55.710;12.464;2022-08-05T14:19:05;2.60;;;0.50;;
68854;SDS011;55859;55.710;12.464;2022-08-05T14:21:30;0.87;;;0.37;;
68854;SDS011;55859;55.710;12.464;2022-08-05T14:23:56;1.42;;;0.40;;
68854;SDS011;55859;55.710;12.464;2022-08-05T14:26:21;0.77;;;0.40;;
68854;SDS011;55859;55.710;12.464;2022-08-05T14:28:46;1.10;;;0.50;;
68854;SDS011;55859;55.710;12.464;2022-08-05T14:31:12;2.13;;;0.60;;
68854;SDS011;55859;55.710;12.464;2022-08-05T14:33:37;1.97;;;0.50;;
68854;SDS011;55859;55.710;12.464;2022-08-05T14:36:02;2.60;;;0.70;;
68854;SDS011;55859;55.710;12.464;2022-08-05T14:38:28;3.78;;;0.40;;
68854;SDS011;55859;55.710;12.464;2022-08-05T14:40:54;3.20;;;0.57;;
68854;SDS011;55859;55.710;12.464;2022-08-05T14:43:20;3.00;;;0.40;;
68854;SDS011;55859;55.710;12.464;2022-08-05T14:45:45;0.80;;;0.40;;
68854;SDS011;55859;55.710;12.464;2022-08-05T14:48:10;1.20;;;0.60;;
68854;SDS011;55859;55.710;12.464;2022-08-05T14:50:36;1.85;;;0.68;;
68854;SDS011;55859;55.710;12.464;2022-08-05T14:53:01;2.20;;;0.40;;
68854;SDS011;55859;55.710;12.464;2022-08-05T14:55:27;4.47;;;0.63;;
68854;SDS011;55859;55.710;12.464;2022-08-05T14:57:52;4.15;;;0.50;;
68854;SDS011;55859;55.710;12.464;2022-08-05T15:00:18;2.05;;;0.70;;
68854;SDS011;55859;55.710;12.464;2022-08-05T15:02:45;2.60;;;0.68;;
68854;SDS011;55859;55.710;12.464;2022-08-05T15:05:11;0.95;;;0.50;;
68854;SDS011;55859;55.710;12.464;2022-08-05T15:07:37;2.72;;;0.68;;
68854;SDS011;55859;55.710;12.464;2022-08-05T15:10:03;2.83;;;0.40;;
68854;SDS011;55859;55.710;12.464;2022-08-05T15:12:29;2.65;;;0.50;;
68854;SDS011;55859;55.710;12.464;2022-08-05T15:14:54;2.47;;;0.97;;
68854;SDS011;55859;55.710;12.464;2022-08-05T15:17:19;2.93;;;0.50;;
68854;SDS011;55859;55.710;12.464;2022-08-05T15:19:45;2.58;;;0.50;;
68854;SDS011;55859;55.710;12.464;2022-08-05T15:22:10;1.30;;;0.57;;